X  Close Metar Aviation Weather Data        KDWH George Bush Intercontinental Airport
Temperature
17.2°C Temperature
6.1°C Dewpoint
48% Humidity



Wind
15 KM/H
9 MPH
4 M/S
8 KTS



160°
SSE
Current Conditions

Sunny Sunny
Pressure 1025 (hPa) - 30.27 (inHg)
Visibility 10 (mile) - 16 (km)
Airport
Airport-code KDWH

Location: George Bush Intercontinental Airport
Distance: 12 (km)

Metar:
METAR KDWH 042153Z AUTO 16008KT 10SM CLR 17/06 A3027 RMK AO2 SLP250 T01720061

Time: 02-04-2023 15:53 CST